AirNav   Pilot Hours Calculator
 
 1471 users online  

PS71 St Mary Hospital Heliport
Langhorne, Pennsylvania, USA

GOING TO LANGHORNE?


FAA INFORMATION EFFECTIVE 31 DECEMBER 2020

Location

FAA Identifier: PS71
Lat/Long: 40-12-08.0600N 074-55-21.7700W
40-12.134333N 074-55.362833W
40.2022389,-74.9227139
(estimated)
Elevation: 140 ft. / 43 m (estimated)
Variation: 11W (1985)
From city: 1 mile N of LANGHORNE, PA
Time zone: UTC -5 (UTC -4 during Daylight Saving Time)
Zip code: 19047

Heliport Operations

Heliport use: Private use, MEDICAL USE.
Activation date: 04/1986
Control tower: no
ARTCC: NEW YORK CENTER
FSS: WILLIAMSPORT FLIGHT SERVICE STATION
Attendance: CONTINUOUS
Wind indicator: yes
Segmented circle: no

Heliport Communications

WX ASOS at TTN (7 nm NE): 126.775 (609-538-8690)
WX ASOS at PNE (8 nm SW): 121.15 (215-677-0146)
WX ASOS at DYL (12 nm NW): 118.875 (215-345-0392)
WX ASOS at VAY (16 nm S): 119.325 (609-267-1176)
WX AWOS-3 at LOM (16 nm W): 118.925 (215-646-1068)

Nearby radio navigation aids

VOR radial/distance  VOR name  Freq  Var
ARDr203/3.1YARDLEY VOR/DME108.2010W
GXUr320/18.9MC GUIRE VORTAC110.6012W
RBVr280/19.6ROBBINSVILLE VORTAC113.8010W
SBJr210/24.3SOLBERG VOR/DME112.9010W
PTWr101/29.2POTTSTOWN VORTAC116.5009W
CYNr326/32.3COYLE VORTAC113.4010W
COLr270/35.5COLTS NECK VOR/DME115.4011W
BWZr198/36.1BROADWAY VOR/DME114.2011W
OODr037/38.2WOODSTOWN VORTAC112.8010W
MXEr073/38.4MODENA VORTAC113.2009W
FJCr152/39.7ALLENTOWN VORTAC117.5010W
VCNr013/39.9CEDAR LAKE VOR/DME115.2010W

 
NDB name  Hdg/Dist  Freq  Var  ID
AMBLER087/17.227512WING .. -. --.
LAKEHURST300/28.539611WNEL -. . .-..
CHATHAM228/39.425413WCAT -.-. .- -

Heliport Services

Runway Information

Helipad H1

Dimensions: 45 x 45 ft. / 14 x 14 m
Surface: concrete
Latitude: 40-12.134333N
Longitude: 074-55.362833W
Elevation: 140.0 ft.
Traffic pattern: leftleft

Heliport Ownership and Management from official FAA records

Ownership: Privately-owned
Owner: SAINT MARY HOSPITAL
LANGHORNE-NEWTOWN ROAD
LANGHORNE, PA 19047
Phone 215-750-2035
Manager: H. DALE MC ELHONE
376 WHEATSHEAF LANE
LONGHORNE, PA 19047
Phone 215-750-7961

Additional Remarks

A52-H1 HOSPITAL BLDGS WEST OF PAD.
FOR CD CTC PHILADELPHIA APCH AT 800-354-9884.

Instrument Procedures

There are no published instrument procedures at PS71.

Some nearby airports with instrument procedures:

KTTN - Trenton Mercer Airport (7 nm NE)
KPNE - Northeast Philadelphia Airport (8 nm SW)
KDYL - Doylestown Airport (12 nm NW)
N87 - Trenton-Robbinsville Airport (15 nm E)
KVAY - South Jersey Regional Airport (16 nm S)
KLOM - Wings Field Airport (16 nm W)
39N - Princeton Airport (17 nm NE)
N14 - Flying W Airport (17 nm S)
KWRI - McGuire Field (Joint Base Mc Guire Dix Lakehurst) Airport (19 nm SE)
 
Loc | Ops | Rwys | IFR | FBO | Links
Com | Nav | Svcs | Stats | Notes
Area around PS71 (St Mary Hospital Heliport)
 
Road maps at: MapQuest Bing Google
 
Aerial photo
No photo
 
Sectional chart

 
Airport distance calculator
Flying to St Mary Hospital Heliport? Find the distance to fly.

From to PS71

Sunrise and sunset
Times for 15-Jan-2021
 Local
(UTC-5)
 Zulu
(UTC)
Morning civil twilight06:5111:51
Sunrise07:2112:21
Sunset16:5721:57
Evening civil twilight17:2722:27

Current date and time
Zulu (UTC)  15-Jan-2021 16:45:26
Local (UTC-5)  15-Jan-2021 11:45:26
 
METAR
KTTN 
7nm NE 
ASOS 133.70 609-538-8690
151637Z 09012KT 4SM BR OVC010 06/04 A2993 RMK AO2 T00610039
KPNE 
8nm SW 
151554Z 09010KT 3SM HZ FEW010 08/04 A2996 RMK AO2 SLP146 T00780044
KDYL 
12nm NW 
151554Z AUTO 00000KT 7SM BKN007 OVC013 06/02 A2994 RMK AO2 SLP143 T00560022
KLOM 
16nm W 
151635Z AUTO 09010KT 5SM HZ BKN012 07/04 A2991 RMK AO2 T00670040
KVAY 
17nm S 
ASOS 119.325 609-267-1176
151554Z AUTO 08006KT 5SM BR CLR 07/05 A2995 RMK AO2 SLP142 T00720050
KWRI 
19nm SE 
151556Z AUTO 09009G15KT 10SM CLR 09/05 A2994 RMK AO2 SLP139 T00870047 $
TAF
KTTN 
7nm NE 
151552Z 1516/1612 08008KT 4SM BR BKN006 FM151700 08009KT 6SM BR OVC020 FM160000 09011KT 5SM -RADZ BR OVC010 FM160200 10012KT 2SM -RADZ BR OVC008 FM160400 10010KT 1SM -RADZ BR OVC004
KPNE 
8nm SW 
151358Z 1514/1612 07008KT 6SM BR BKN007 FM151500 08008KT 6SM BR OVC035 TEMPO 1515/1518 OVC020 FM151800 08010KT 6SM BR OVC030 FM160100 10010KT 6SM -RADZ BR OVC015 FM160300 11009KT 3SM -RADZ BR OVC008 FM160500 VRB06KT 2SM -RADZ BR OVC004
KWRI 
19nm SE 
151000Z 1510/1616 04004KT 6000 BR SCT015 BKN160 QNH2992INS TEMPO 1510/1513 3200 BR SCT008 BKN015 BECMG 1513/1515 09009KT 9999 NSW SCT009 OVC020 QNH2980INS BECMG 1523/1524 10010KT 8000 -RA BR SCT007 OVC015 QNH2974INS BECMG 1603/1604 11008KT 6000 -RA BR OVC009 QNH2957INS TEMPO 1605/1609 3200 -RA BR OVC005 BECMG 1610/1611 26011KT 8000 -SHRA BR OVC012 QNH2957INS BECMG 1613/1614 26012G22KT 9999 NSW BKN020 QNH2955INS TX12/1519Z TNM03/1510Z
NOTAMs
Click for the latest NOTAMs
NOTAMs are issued by the DoD/FAA and will open in a separate window not controlled by AirNav.

 

 
 

Would you like to see your business listed on this page?

 If your business provides an interesting product or service to pilots, flight crews, aircraft, or users of the St Mary Hospital Heliport, you should consider listing it here.  To start the listing process, click on the button below
 
Add a business
 

Other Pages about St Mary Hospital Heliport

Update a link
 
Copyright © AirNav, LLC. All rights reserved. Privacy Policy  Contact